Time;durP1;ratioP1;P1;durP2;ratioP2;P2;SDS_P1;SDS_P2;PMS_P1;PMS_P2;Temp;Humidity;BMP_temperature;BMP_pressure;BME280_temperature;BME280_humidity;BME280_pressure;Samples;Min_cycle;Max_cycle;Signal;HPM_P1;HPM_P2
2022/01/05 00:00:41;;;;;;;4.63;1.90;;;17.20;66.50;;;;;;4929915;29;20070;-72
2022/01/05 00:03:06;;;;;;;5.40;1.83;;;17.20;66.40;;;;;;4929886;29;20067;-73
2022/01/05 00:05:32;;;;;;;3.13;1.52;;;17.20;66.40;;;;;;4930636;29;20036;-73
2022/01/05 00:07:58;;;;;;;5.63;2.05;;;17.20;66.40;;;;;;4912518;29;20602;-72
2022/01/05 00:10:24;;;;;;;4.95;1.90;;;17.20;66.40;;;;;;4929951;29;20032;-72
2022/01/05 00:12:50;;;;;;;3.58;1.63;;;17.10;66.30;;;;;;4930398;29;20805;-73
2022/01/05 00:15:15;;;;;;;4.38;1.90;;;17.10;66.30;;;;;;4929884;29;20030;-73
2022/01/05 00:17:41;;;;;;;5.60;1.90;;;17.20;66.30;;;;;;4928175;29;20039;-74
2022/01/05 00:20:07;;;;;;;4.38;1.75;;;17.10;66.10;;;;;;4929933;29;20094;-73
2022/01/05 00:22:33;;;;;;;3.83;1.88;;;17.10;66.10;;;;;;4929557;29;20502;-73
2022/01/05 00:25:00;;;;;;;4.43;2.03;;;17.10;66.10;;;;;;4929674;29;20078;-73
2022/01/05 00:27:25;;;;;;;3.42;1.55;;;17.10;66.00;;;;;;4929532;29;20039;-72
2022/01/05 00:29:51;;;;;;;4.35;1.83;;;17.10;65.90;;;;;;4929415;29;20058;-73
2022/01/05 00:32:16;;;;;;;4.40;1.90;;;17.10;65.90;;;;;;4929499;29;20039;-72
2022/01/05 00:34:42;;;;;;;5.93;1.90;;;17.10;65.90;;;;;;4929083;29;20035;-73
2022/01/05 00:37:08;;;;;;;4.88;1.70;;;17.10;65.80;;;;;;4929820;29;20024;-73
2022/01/05 00:39:33;;;;;;;5.63;2.08;;;17.10;65.80;;;;;;4929815;29;20554;-73
2022/01/05 00:41:59;;;;;;;3.88;1.60;;;17.00;65.70;;;;;;4929838;29;20042;-73
2022/01/05 00:44:26;;;;;;;5.25;1.90;;;17.10;65.70;;;;;;4929329;29;20332;-73
2022/01/05 00:46:52;;;;;;;5.15;2.03;;;17.10;65.60;;;;;;4929371;29;20027;-73
2022/01/05 00:49:17;;;;;;;4.15;2.03;;;17.00;65.50;;;;;;4929443;29;20032;-73
2022/01/05 00:51:43;;;;;;;4.95;1.80;;;17.00;65.40;;;;;;4929048;29;20028;-73
2022/01/05 00:54:09;;;;;;;4.50;1.48;;;17.00;65.40;;;;;;4929435;29;20032;-73
2022/01/05 00:56:34;;;;;;;5.25;1.92;;;17.00;65.40;;;;;;4929540;29;20019;-73
2022/01/05 00:59:00;;;;;;;4.13;1.92;;;17.00;65.40;;;;;;4929768;29;20050;-73
2022/01/05 01:01:26;;;;;;;6.43;1.80;;;17.00;65.30;;;;;;4929660;29;20383;-73
2022/01/05 01:03:52;;;;;;;4.78;1.80;;;17.00;65.30;;;;;;4929403;29;20126;-73
2022/01/05 01:06:18;;;;;;;4.53;1.70;;;17.00;65.20;;;;;;4929574;29;20028;-73
2022/01/05 01:08:43;;;;;;;4.72;2.00;;;16.90;65.20;;;;;;4929415;29;20054;-73
2022/01/05 01:11:09;;;;;;;6.03;2.15;;;17.00;65.20;;;;;;4929486;29;20028;-72
2022/01/05 01:13:35;;;;;;;4.60;1.63;;;17.00;65.20;;;;;;4929512;29;20035;-73
2022/01/05 01:16:01;;;;;;;4.88;1.77;;;16.90;65.10;;;;;;4930159;29;20507;-72
2022/01/05 01:18:27;;;;;;;4.22;1.60;;;16.90;65.00;;;;;;4931545;29;20042;-73
2022/01/05 01:20:53;;;;;;;3.45;1.63;;;16.90;65.00;;;;;;4934308;29;20030;-73
2022/01/05 01:23:22;;;;;;;3.40;1.63;;;16.90;65.00;;;;;;4933552;29;20690;-73
2022/01/05 01:25:49;;;;;;;4.65;1.63;;;16.90;64.90;;;;;;4914052;29;20776;-73
2022/01/05 01:28:15;;;;;;;4.85;1.58;;;16.90;64.90;;;;;;4930844;29;20040;-73
2022/01/05 01:30:40;;;;;;;4.53;1.50;;;16.90;64.80;;;;;;4933342;29;20034;-72
2022/01/05 01:33:07;;;;;;;5.03;1.45;;;16.80;64.80;;;;;;4933445;29;20510;-72
2022/01/05 01:35:33;;;;;;;5.15;1.67;;;16.90;64.70;;;;;;4933646;29;20827;-73
2022/01/05 01:37:58;;;;;;;5.13;1.98;;;16.90;64.70;;;;;;4933267;29;20031;-73
2022/01/05 01:40:24;;;;;;;3.40;1.40;;;16.80;64.60;;;;;;4932810;29;20066;-72
2022/01/05 01:42:50;;;;;;;4.45;1.60;;;16.90;64.60;;;;;;4931098;29;20610;-72
2022/01/05 01:45:16;;;;;;;5.10;1.90;;;16.90;64.60;;;;;;4932728;29;20084;-72
2022/01/05 01:47:42;;;;;;;5.28;1.70;;;16.80;64.50;;;;;;4933108;29;20023;-73
2022/01/05 01:50:09;;;;;;;3.83;1.50;;;16.80;64.50;;;;;;4932583;29;20077;-72
2022/01/05 01:52:36;;;;;;;6.40;1.77;;;16.80;64.60;;;;;;4930225;29;20390;-72
2022/01/05 01:55:03;;;;;;;5.25;1.80;;;16.80;64.40;;;;;;4932053;29;20547;-72
2022/01/05 01:57:35;;;;;;;4.75;1.50;;;16.80;64.40;;;;;;4931861;29;20035;-73
2022/01/05 02:00:01;;;;;;;3.70;1.40;;;16.80;64.30;;;;;;4932819;29;20031;-72
2022/01/05 02:02:27;;;;;;;5.15;1.50;;;16.80;64.40;;;;;;4932059;29;20027;-73
2022/01/05 02:04:52;;;;;;;3.28;1.30;;;16.80;64.30;;;;;;4932744;29;20096;-72
2022/01/05 02:07:18;;;;;;;4.38;1.50;;;16.80;64.20;;;;;;4932271;29;20040;-73
2022/01/05 02:09:44;;;;;;;4.60;1.67;;;16.80;64.30;;;;;;4932535;29;20538;-72
2022/01/05 02:12:10;;;;;;;3.95;1.50;;;16.80;64.20;;;;;;4932369;29;20046;-73
2022/01/05 02:14:36;;;;;;;2.88;1.45;;;16.70;64.10;;;;;;4931941;29;20110;-72
2022/01/05 02:17:07;;;;;;;4.97;2.05;;;16.70;64.00;;;;;;4932436;29;20115;-73
2022/01/05 02:19:33;;;;;;;6.03;1.85;;;16.70;64.00;;;;;;4932709;29;20027;-72
2022/01/05 02:21:58;;;;;;;4.70;1.42;;;16.70;64.00;;;;;;4932143;29;20032;-72
2022/01/05 02:24:24;;;;;;;4.95;1.58;;;16.70;64.00;;;;;;4931809;29;20043;-73
2022/01/05 02:26:50;;;;;;;4.03;1.70;;;16.70;63.90;;;;;;4932005;29;20034;-72
2022/01/05 02:29:15;;;;;;;5.80;1.50;;;16.70;63.90;;;;;;4932343;29;20042;-72
2022/01/05 02:31:41;;;;;;;6.45;1.60;;;16.70;63.90;;;;;;4931439;29;20034;-72
2022/01/05 02:34:07;;;;;;;4.90;1.70;;;16.70;63.90;;;;;;4931846;29;20028;-73
2022/01/05 02:36:32;;;;;;;5.43;1.63;;;16.70;63.80;;;;;;4931630;29;20032;-73
2022/01/05 02:38:58;;;;;;;4.43;1.48;;;16.70;63.80;;;;;;4931171;29;20038;-72
2022/01/05 02:41:24;;;;;;;4.55;1.48;;;16.70;63.70;;;;;;4931758;29;20395;-73
2022/01/05 02:43:49;;;;;;;2.85;1.30;;;16.70;63.60;;;;;;4931432;29;20055;-73
2022/01/05 02:46:19;;;;;;;5.43;1.55;;;16.70;63.60;;;;;;4931321;29;20402;-72
2022/01/05 02:48:47;;;;;;;5.10;1.80;;;16.70;63.50;;;;;;4931565;29;20149;-72
2022/01/05 02:51:13;;;;;;;3.75;1.70;;;16.70;63.40;;;;;;4931835;29;20106;-73
2022/01/05 02:53:39;;;;;;;5.05;1.60;;;16.70;63.30;;;;;;4914520;29;20454;-73
2022/01/05 02:56:06;;;;;;;4.15;1.83;;;16.70;63.30;;;;;;4932172;29;20790;-72
2022/01/05 02:58:32;;;;;;;4.18;1.67;;;16.70;63.30;;;;;;4932504;29;20483;-72
2022/01/05 03:01:04;;;;;;;6.60;1.83;;;16.70;63.10;;;;;;4934894;29;20043;-72
2022/01/05 03:03:30;;;;;;;6.05;1.67;;;16.80;63.00;;;;;;4935116;29;20435;-73
2022/01/05 03:05:55;;;;;;;6.40;2.03;;;16.80;63.00;;;;;;4932220;29;20091;-73
2022/01/05 03:08:21;;;;;;;5.38;1.58;;;16.80;63.00;;;;;;4931510;29;20380;-72
2022/01/05 03:10:47;;;;;;;5.55;1.60;;;16.80;62.90;;;;;;4931282;29;20380;-72
2022/01/05 03:13:12;;;;;;;5.05;1.58;;;16.80;62.90;;;;;;4931369;29;20028;-73
2022/01/05 03:15:38;;;;;;;6.30;1.60;;;16.80;62.90;;;;;;4930923;29;20110;-73
2022/01/05 03:18:05;;;;;;;4.68;1.50;;;16.80;62.80;;;;;;4930270;29;20032;-73
2022/01/05 03:20:32;;;;;;;5.55;1.60;;;16.80;62.80;;;;;;4930839;29;20028;-72
2022/01/05 03:22:58;;;;;;;3.63;1.52;;;16.80;62.80;;;;;;4931114;29;20040;-72
2022/01/05 03:25:25;;;;;;;5.50;1.77;;;16.80;62.70;;;;;;4930916;29;20036;-74
2022/01/05 03:27:53;;;;;;;4.15;1.67;;;16.80;62.60;;;;;;4931260;29;20040;-72
2022/01/05 03:30:22;;;;;;;3.95;1.63;;;16.80;63.60;;;;;;4930684;29;20032;-73
2022/01/05 03:35:28;;;;;;;5.00;1.60;;;16.80;62.60;;;;;;4930728;29;20028;-73
2022/01/05 03:37:54;;;;;;;4.15;1.55;;;16.90;62.60;;;;;;4930801;29;20024;-73
2022/01/05 03:40:22;;;;;;;4.28;1.85;;;16.90;62.60;;;;;;4930277;29;20132;-73
2022/01/05 03:42:47;;;;;;;4.30;1.60;;;16.80;62.50;;;;;;4930093;29;20059;-72
2022/01/05 03:45:13;;;;;;;5.63;1.80;;;16.90;62.40;;;;;;4930343;29;20139;-74
2022/01/05 03:47:39;;;;;;;5.32;1.95;;;16.90;62.40;;;;;;4929915;29;20170;-73
2022/01/05 03:50:06;;;;;;;5.20;1.70;;;16.80;62.20;;;;;;4929850;29;20130;-73
2022/01/05 03:52:32;;;;;;;5.07;1.70;;;16.80;62.20;;;;;;4929626;29;20035;-73
2022/01/05 03:54:58;;;;;;;4.35;1.50;;;16.80;62.20;;;;;;4930449;29;20036;-73
2022/01/05 03:57:25;;;;;;;4.50;1.70;;;16.80;62.20;;;;;;4929949;29;20051;-74
2022/01/05 03:59:51;;;;;;;5.57;1.90;;;16.80;62.20;;;;;;4930012;29;20020;-73
2022/01/05 05:45:18;;;;;;;5.15;1.65;;;17.90;58.60;;;;;;4317511;23;20063;-73
2022/01/05 05:47:45;;;;;;;4.93;1.40;;;17.90;58.60;;;;;;4952072;29;20035;-74
2022/01/05 05:50:11;;;;;;;3.47;1.23;;;17.80;58.60;;;;;;4952389;29;20039;-73
2022/01/05 05:52:38;;;;;;;4.80;1.60;;;17.80;58.50;;;;;;4951548;29;20027;-72
2022/01/05 05:55:04;;;;;;;4.05;1.33;;;17.80;58.50;;;;;;4951854;29;20032;-72
2022/01/05 05:57:30;;;;;;;8.10;1.70;;;17.70;58.40;;;;;;4952283;29;20164;-73
2022/01/05 05:59:56;;;;;;;7.05;1.48;;;17.80;58.80;;;;;;4955113;29;20061;-73
2022/01/05 06:02:21;;;;;;;5.70;1.60;;;17.70;59.20;;;;;;4954783;29;20099;-73
2022/01/05 06:04:47;;;;;;;5.90;1.70;;;17.70;59.30;;;;;;4954800;29;20090;-72
2022/01/05 06:07:12;;;;;;;5.75;1.60;;;17.60;59.50;;;;;;4955619;29;20761;-73
2022/01/05 06:09:39;;;;;;;4.32;1.35;;;17.60;59.80;;;;;;4955511;29;20046;-72
2022/01/05 06:12:05;;;;;;;5.97;1.70;;;17.60;59.80;;;;;;4955090;29;20029;-72
2022/01/05 06:14:31;;;;;;;5.70;1.98;;;17.60;60.00;;;;;;4954213;28;20086;-72
2022/01/05 06:16:56;;;;;;;5.03;1.58;;;17.60;60.00;;;;;;4955159;29;20023;-72
2022/01/05 06:19:22;;;;;;;4.55;1.70;;;17.50;60.00;;;;;;4955394;29;20058;-72
2022/01/05 06:21:50;;;;;;;5.00;1.67;;;17.50;60.00;;;;;;4954164;29;20035;-73
2022/01/05 06:24:16;;;;;;;6.15;1.80;;;17.50;60.10;;;;;;4954912;29;20053;-73
2022/01/05 06:26:42;;;;;;;7.28;1.90;;;17.50;60.20;;;;;;4954387;28;20023;-75
2022/01/05 06:29:08;;;;;;;5.68;1.77;;;17.50;60.20;;;;;;4958281;29;20023;-75
2022/01/05 06:31:34;;;;;;;5.50;1.58;;;17.40;60.20;;;;;;4958369;29;20029;-74
2022/01/05 06:34:00;;;;;;;6.68;1.60;;;17.40;60.30;;;;;;4957931;29;20023;-76
2022/01/05 06:36:25;;;;;;;5.43;1.75;;;17.40;60.40;;;;;;4958136;29;20027;-75
2022/01/05 06:38:52;;;;;;;8.48;1.80;;;17.40;60.40;;;;;;4957425;29;20035;-73
2022/01/05 06:41:17;;;;;;;6.53;1.67;;;17.40;60.40;;;;;;4956686;29;20035;-73
2022/01/05 06:43:43;;;;;;;15.50;1.80;;;17.40;60.40;;;;;;4956344;29;20149;-72
2022/01/05 06:46:09;;;;;;;6.93;1.73;;;17.40;60.40;;;;;;4957518;29;20035;-75
2022/01/05 06:48:35;;;;;;;6.07;1.80;;;17.40;60.60;;;;;;4957710;29;20664;-74
2022/01/05 06:51:01;;;;;;;4.80;1.65;;;17.40;60.70;;;;;;4957597;29;20035;-74
2022/01/05 06:53:27;;;;;;;6.60;1.63;;;17.40;60.60;;;;;;4957060;29;20038;-74
2022/01/05 06:55:54;;;;;;;9.68;1.60;;;17.40;60.60;;;;;;4956760;29;20046;-73
2022/01/05 06:58:20;;;;;;;5.63;1.55;;;17.40;61.60;;;;;;4956319;29;20035;-73
2022/01/05 07:00:45;;;;;;;6.72;1.70;;;17.40;60.80;;;;;;4956622;29;20038;-73
2022/01/05 07:03:11;;;;;;;7.70;1.30;;;17.40;60.80;;;;;;4957217;29;20122;-73
2022/01/05 07:05:38;;;;;;;8.32;1.80;;;17.40;60.50;;;;;;4957557;29;20037;-75
2022/01/05 07:08:05;;;;;;;6.40;2.05;;;17.30;60.40;;;;;;4957107;29;20094;-76
2022/01/05 07:10:30;;;;;;;8.43;1.95;;;17.30;60.50;;;;;;4939870;29;20462;-76
2022/01/05 07:12:56;;;;;;;9.63;2.10;;;17.30;60.50;;;;;;4957503;29;20031;-75
2022/01/05 07:15:22;;;;;;;11.27;1.92;;;17.30;60.30;;;;;;4957069;29;20035;-75
2022/01/05 07:17:47;;;;;;;7.82;1.50;;;17.30;60.60;;;;;;4957069;29;20087;-76
2022/01/05 07:20:13;;;;;;;8.98;1.65;;;17.30;60.80;;;;;;4956906;29;20482;-75
2022/01/05 07:22:39;;;;;;;8.55;2.13;;;17.20;60.70;;;;;;4957820;29;20073;-76
2022/01/05 07:25:06;;;;;;;9.18;1.95;;;17.30;60.70;;;;;;4956243;28;20074;-72
2022/01/05 07:27:32;;;;;;;10.13;1.80;;;17.20;60.50;;;;;;4956031;29;20031;-74
2022/01/05 07:29:57;;;;;;;10.65;1.90;;;17.20;60.50;;;;;;4957433;29;20065;-74
2022/01/05 07:32:23;;;;;;;9.48;1.77;;;17.20;61.60;;;;;;4955915;29;20027;-75
2022/01/05 07:34:49;;;;;;;11.68;2.45;;;17.20;60.70;;;;;;4956729;29;20113;-74
2022/01/05 07:37:15;;;;;;;13.98;2.28;;;17.20;60.90;;;;;;4956556;29;20125;-74
2022/01/05 07:39:42;;;;;;;17.35;2.60;;;17.20;60.90;;;;;;4956636;29;20027;-75
2022/01/05 07:42:08;;;;;;;11.70;2.17;;;17.20;60.90;;;;;;4957006;29;20019;-76
2022/01/05 07:44:34;;;;;;;17.05;2.53;;;17.20;61.10;;;;;;4957242;29;20063;-77
2022/01/05 07:46:59;;;;;;;10.57;2.30;;;17.20;61.10;;;;;;4956174;29;20030;-76
2022/01/05 07:49:25;;;;;;;14.23;2.30;;;17.20;61.20;;;;;;4957014;29;20027;-73
2022/01/05 07:51:51;;;;;;;15.27;2.22;;;17.10;61.10;;;;;;4957568;29;20102;-73
2022/01/05 07:54:16;;;;;;;14.13;2.63;;;17.20;61.10;;;;;;4957659;29;20042;-74
2022/01/05 07:56:42;;;;;;;6.68;2.30;;;17.10;61.10;;;;;;4957562;29;20031;-75
2022/01/05 07:59:09;;;;;;;14.50;2.53;;;17.10;61.20;;;;;;4957803;29;20082;-75
2022/01/05 08:01:34;;;;;;;15.40;2.40;;;17.10;61.20;;;;;;4955932;29;20037;-74
2022/01/05 08:04:01;;;;;;;15.70;2.35;;;17.10;61.30;;;;;;4956020;29;20032;-74
2022/01/05 08:06:26;;;;;;;18.13;3.15;;;17.10;61.30;;;;;;4956258;29;20526;-74
2022/01/05 08:08:52;;;;;;;16.63;2.33;;;17.10;61.40;;;;;;4950815;29;20028;-72
2022/01/05 08:11:18;;;;;;;16.95;2.60;;;17.00;61.40;;;;;;4949660;29;20031;-72
2022/01/05 08:13:44;;;;;;;17.17;2.63;;;17.00;61.40;;;;;;4948867;29;20028;-74
2022/01/05 08:16:09;;;;;;;12.10;2.30;;;17.00;61.40;;;;;;4949030;29;20035;-73
2022/01/05 08:18:35;;;;;;;12.00;2.30;;;17.00;61.50;;;;;;4949285;29;20042;-73
2022/01/05 08:21:01;;;;;;;10.68;2.40;;;16.90;61.70;;;;;;4949360;29;20024;-73
2022/01/05 08:23:27;;;;;;;18.10;2.80;;;17.00;62.00;;;;;;4948476;29;20809;-72
2022/01/05 08:25:53;;;;;;;16.00;2.38;;;17.00;62.20;;;;;;4949022;29;20471;-73
2022/01/05 08:28:19;;;;;;;11.10;2.17;;;17.00;62.30;;;;;;4949726;29;20043;-72
2022/01/05 08:30:46;;;;;;;11.02;2.15;;;17.10;62.40;;;;;;4949224;29;20027;-72
2022/01/05 08:33:14;;;;;;;10.45;2.15;;;17.10;62.50;;;;;;4948609;29;20039;-72
2022/01/05 08:35:39;;;;;;;12.82;2.25;;;17.20;62.60;;;;;;4949351;29;20031;-74
2022/01/05 08:38:05;;;;;;;12.10;2.17;;;17.20;62.60;;;;;;4948752;29;20485;-73
2022/01/05 08:40:32;;;;;;;12.65;2.38;;;17.20;62.50;;;;;;4948700;29;20051;-73
2022/01/05 08:42:58;;;;;;;12.45;2.45;;;17.20;62.80;;;;;;4948752;29;20035;-73
2022/01/05 08:45:25;;;;;;;12.98;2.50;;;17.30;62.80;;;;;;4948624;29;20070;-73
2022/01/05 08:47:54;;;;;;;14.80;2.28;;;17.30;62.60;;;;;;4948877;29;20066;-72
2022/01/05 08:50:22;;;;;;;58.13;5.65;;;17.30;62.50;;;;;;4950015;29;20126;-73
2022/01/05 08:52:48;;;;;;;36.83;3.95;;;17.30;62.70;;;;;;4949148;29;20039;-73
2022/01/05 08:55:19;;;;;;;29.83;3.70;;;17.30;62.70;;;;;;4949501;29;20047;-74
2022/01/05 08:57:46;;;;;;;40.30;3.55;;;17.40;62.70;;;;;;4948481;29;20040;-74
2022/01/05 09:00:12;;;;;;;21.95;3.17;;;17.40;62.60;;;;;;4948072;29;20032;-72
2022/01/05 09:02:39;;;;;;;20.25;2.47;;;17.40;62.40;;;;;;4949883;29;20086;-73
2022/01/05 09:05:06;;;;;;;20.98;2.80;;;17.40;62.30;;;;;;4949064;29;20054;-72
2022/01/05 09:07:34;;;;;;;26.20;3.50;;;17.40;62.20;;;;;;4949428;29;20039;-72
2022/01/05 09:10:00;;;;;;;21.83;2.42;;;17.50;62.10;;;;;;4948885;29;20036;-71
2022/01/05 09:12:26;;;;;;;15.95;2.83;;;17.50;62.00;;;;;;4950168;29;20042;-72
2022/01/05 09:14:51;;;;;;;22.52;2.97;;;17.50;61.90;;;;;;4949103;29;20565;-74
2022/01/05 09:17:17;;;;;;;22.65;3.17;;;17.50;61.80;;;;;;4949200;29;20027;-72
2022/01/05 09:19:44;;;;;;;18.05;2.65;;;17.60;61.70;;;;;;4932405;29;20054;-72
2022/01/05 09:22:10;;;;;;;13.45;2.47;;;17.60;61.50;;;;;;4948754;29;20541;-72
2022/01/05 09:24:37;;;;;;;14.32;2.90;;;17.60;61.30;;;;;;4948824;29;20039;-73
2022/01/05 09:27:04;;;;;;;14.00;2.10;;;17.70;61.30;;;;;;4948954;29;20035;-73
2022/01/05 09:29:33;;;;;;;18.05;2.65;;;17.70;61.10;;;;;;4949095;29;20624;-73
2022/01/05 09:32:04;;;;;;;21.45;2.47;;;17.80;60.90;;;;;;4948729;29;20039;-73
2022/01/05 09:34:31;;;;;;;19.50;2.90;;;17.80;60.70;;;;;;4948454;29;20116;-74
2022/01/05 09:37:02;;;;;;;16.40;2.90;;;17.90;60.70;;;;;;4948429;29;20028;-73
2022/01/05 09:42:12;;;;;;;12.43;2.42;;;17.90;60.40;;;;;;4949578;29;20066;-73
2022/01/05 09:44:43;;;;;;;12.85;2.45;;;18.00;60.20;;;;;;4948421;29;20058;-73
2022/01/05 09:47:39;;;;;;;10.68;2.30;;;18.00;60.00;;;;;;4948408;29;20024;-74
2022/01/05 09:50:10;;;;;;;10.82;2.63;;;18.10;60.00;;;;;;4932885;29;20671;-74
2022/01/05 09:52:43;;;;;;;8.00;2.08;;;18.20;60.00;;;;;;4951878;29;20035;-73
2022/01/05 09:55:11;;;;;;;11.48;2.10;;;18.20;59.70;;;;;;4951257;29;20036;-74
2022/01/05 09:57:39;;;;;;;8.68;2.03;;;18.20;59.60;;;;;;4952119;29;20457;-73
2022/01/05 10:00:06;;;;;;;8.65;1.83;;;18.20;59.50;;;;;;4951702;29;20028;-74
2022/01/05 10:02:33;;;;;;;10.68;1.75;;;18.20;59.60;;;;;;4951782;29;20042;-73
2022/01/05 10:05:00;;;;;;;7.05;1.80;;;18.20;59.50;;;;;;4951611;29;20043;-73
2022/01/05 10:07:26;;;;;;;6.90;2.10;;;18.20;59.40;;;;;;4951089;29;20028;-73
2022/01/05 10:09:52;;;;;;;9.43;1.70;;;18.30;59.30;;;;;;4951687;29;20027;-73
2022/01/05 10:12:20;;;;;;;15.77;2.00;;;18.30;59.30;;;;;;4952011;29;20372;-73
2022/01/05 10:14:48;;;;;;;12.52;1.88;;;18.30;59.10;;;;;;4950994;29;20038;-74
2022/01/05 10:17:24;;;;;;;8.75;1.80;;;18.40;59.20;;;;;;4950517;29;20027;-74
2022/01/05 10:20:08;;;;;;;6.25;1.80;;;18.40;58.90;;;;;;4950734;29;20039;-74
2022/01/05 10:22:39;;;;;;;8.23;2.13;;;18.50;58.80;;;;;;4951215;29;20118;-74
2022/01/05 10:25:22;;;;;;;8.13;1.85;;;18.40;58.70;;;;;;4950089;29;20070;-73
2022/01/05 10:28:00;;;;;;;8.63;2.10;;;18.50;58.70;;;;;;4950817;29;20035;-74
2022/01/05 10:30:42;;;;;;;10.77;1.95;;;18.40;58.60;;;;;;4950742;29;20075;-74
2022/01/05 10:33:08;;;;;;;7.72;2.08;;;18.40;58.60;;;;;;4951711;29;20028;-74
2022/01/05 10:35:34;;;;;;;8.43;2.08;;;18.40;58.80;;;;;;4951640;29;20589;-73
2022/01/05 10:38:09;;;;;;;6.65;1.65;;;18.30;58.80;;;;;;4951883;29;20031;-74
2022/01/05 10:40:37;;;;;;;8.10;1.88;;;18.30;58.80;;;;;;4951955;29;20038;-73
2022/01/05 10:43:13;;;;;;;6.28;1.77;;;18.20;58.90;;;;;;4951617;29;20061;-73
2022/01/05 10:45:42;;;;;;;6.22;1.67;;;18.20;58.80;;;;;;4951128;29;20211;-74
2022/01/05 10:48:10;;;;;;;6.18;1.98;;;18.10;59.00;;;;;;4951632;29;20039;-73
2022/01/05 10:50:36;;;;;;;8.18;1.75;;;18.10;59.00;;;;;;4951412;29;20039;-73
2022/01/05 10:53:04;;;;;;;7.63;1.67;;;18.00;59.10;;;;;;4950887;29;20027;-73
2022/01/05 10:55:32;;;;;;;6.22;1.90;;;18.00;59.10;;;;;;4950923;29;20039;-72
2022/01/05 10:58:04;;;;;;;5.63;1.60;;;18.00;59.10;;;;;;4950707;29;20483;-73
2022/01/05 11:00:32;;;;;;;7.43;1.92;;;17.90;59.10;;;;;;4950971;28;20066;-73
2022/01/05 11:02:58;;;;;;;4.88;1.48;;;17.90;59.20;;;;;;4942287;29;20035;-73
2022/01/05 11:05:24;;;;;;;6.05;1.85;;;17.90;59.30;;;;;;4950005;29;20102;-73
2022/01/05 11:07:50;;;;;;;6.72;1.90;;;17.80;59.30;;;;;;4949982;29;20027;-73
2022/01/05 11:10:18;;;;;;;6.70;1.50;;;17.80;59.40;;;;;;4932703;29;20450;-73
2022/01/05 11:12:51;;;;;;;6.95;1.67;;;17.70;59.30;;;;;;4949620;29;20039;-72
2022/01/05 11:15:25;;;;;;;11.10;2.33;;;17.70;59.40;;;;;;4950068;29;20503;-73
2022/01/05 11:18:20;;;;;;;4.90;1.75;;;17.70;59.50;;;;;;4949731;29;20027;-72
2022/01/05 11:21:01;;;;;;;5.57;1.40;;;17.60;59.50;;;;;;4949588;29;20094;-73
2022/01/05 11:23:31;;;;;;;7.47;1.98;;;17.60;59.70;;;;;;4949603;29;20618;-72
2022/01/05 11:25:58;;;;;;;6.05;1.63;;;17.60;60.00;;;;;;4950264;29;20031;-73
2022/01/05 11:28:26;;;;;;;6.97;2.10;;;17.50;60.00;;;;;;4950079;29;20031;-73
2022/01/05 11:30:53;;;;;;;6.55;1.80;;;17.50;60.00;;;;;;4950260;29;20023;-73
2022/01/05 11:33:20;;;;;;;6.78;1.98;;;17.40;60.00;;;;;;4950398;29;20249;-73
2022/01/05 11:35:47;;;;;;;7.25;1.85;;;17.40;60.20;;;;;;4949935;29;20043;-74
2022/01/05 11:38:14;;;;;;;7.63;2.00;;;17.40;60.20;;;;;;4932479;29;20740;-73
2022/01/05 11:40:52;;;;;;;7.75;1.92;;;17.40;60.30;;;;;;4949295;29;20077;-74
2022/01/05 11:43:34;;;;;;;7.40;1.92;;;17.30;60.30;;;;;;4949506;29;20027;-73
2022/01/05 11:46:17;;;;;;;5.18;1.58;;;17.30;60.40;;;;;;4949507;29;20087;-74
2022/01/05 11:49:07;;;;;;;5.97;1.92;;;17.20;60.30;;;;;;4950318;29;20517;-74
2022/01/05 11:51:42;;;;;;;7.60;1.80;;;17.20;61.30;;;;;;4949613;29;20055;-73
2022/01/05 11:54:23;;;;;;;6.32;1.98;;;17.20;60.40;;;;;;4949222;29;20042;-73
2022/01/05 11:57:11;;;;;;;9.45;2.40;;;17.10;60.30;;;;;;4949254;29;20023;-73
2022/01/05 11:59:41;;;;;;;5.50;1.77;;;17.10;60.30;;;;;;4949028;29;20134;-74
2022/01/05 12:02:14;;;;;;;5.70;1.63;;;17.10;60.40;;;;;;4949422;29;20035;-74
2022/01/05 12:05:01;;;;;;;6.70;1.80;;;17.10;60.40;;;;;;4949799;29;20035;-74
2022/01/05 12:07:39;;;;;;;6.90;2.45;;;17.10;60.40;;;;;;4949414;29;20095;-73
2022/01/05 12:10:23;;;;;;;6.28;1.95;;;17.00;60.50;;;;;;4949080;29;20031;-74
2022/01/05 12:13:02;;;;;;;7.47;1.85;;;17.00;60.60;;;;;;4948319;28;20042;-74
2022/01/05 12:15:46;;;;;;;5.38;1.80;;;17.00;60.70;;;;;;4949113;29;20023;-73
2022/01/05 12:18:30;;;;;;;7.15;1.60;;;17.00;60.80;;;;;;4948881;29;20059;-74
2022/01/05 12:20:57;;;;;;;6.35;1.75;;;17.00;60.80;;;;;;4948917;29;20023;-74
2022/01/05 12:23:25;;;;;;;7.97;2.17;;;17.00;60.90;;;;;;4948580;29;20024;-74
2022/01/05 12:26:07;;;;;;;6.20;1.90;;;17.00;60.80;;;;;;4948826;29;20066;-73
2022/01/05 12:28:50;;;;;;;7.25;1.95;;;17.00;60.70;;;;;;4948854;29;20679;-74
2022/01/05 12:31:16;;;;;;;7.38;2.17;;;17.00;60.80;;;;;;4949533;29;20038;-74
2022/01/05 12:33:51;;;;;;;9.82;2.10;;;16.90;60.90;;;;;;4949066;29;20134;-73
2022/01/05 12:36:35;;;;;;;7.65;1.80;;;16.90;61.00;;;;;;4949495;29;20039;-73
2022/01/05 12:39:09;;;;;;;;;;;17.00;61.00;;;;;;4949774;29;20035;-73
2022/01/05 12:41:42;;;;;;;6.20;1.75;;;16.90;61.00;;;;;;4949775;29;19911;-73
2022/01/05 12:44:18;;;;;;;;;;;16.90;61.10;;;;;;4949450;29;20166;-73
2022/01/05 12:46:49;;;;;;;9.70;2.40;;;16.90;61.10;;;;;;4949040;29;19910;-73
2022/01/05 12:49:22;;;;;;;6.90;1.98;;;17.00;61.10;;;;;;4949045;29;20054;-72
2022/01/05 12:52:07;;;;;;;8.75;2.17;;;16.90;61.10;;;;;;4949256;29;20035;-73
2022/01/05 12:54:42;;;;;;;9.27;2.00;;;16.90;61.00;;;;;;4949494;29;20111;-73
2022/01/05 12:57:10;;;;;;;9.70;1.98;;;16.90;61.00;;;;;;4948774;29;20035;-73
2022/01/05 12:59:43;;;;;;;7.57;2.10;;;16.90;61.20;;;;;;4948855;29;20119;-73
2022/01/05 13:02:12;;;;;;;7.32;1.95;;;16.90;61.30;;;;;;4948824;29;20027;-73
2022/01/05 13:04:42;;;;;;;9.00;2.20;;;16.90;61.10;;;;;;4948363;29;20033;-72
2022/01/05 13:07:08;;;;;;;11.43;2.25;;;17.00;61.00;;;;;;4948911;29;20026;-73
2022/01/05 13:09:37;;;;;;;9.25;2.42;;;17.00;60.80;;;;;;4949141;29;20407;-73
2022/01/05 13:12:12;;;;;;;7.15;2.45;;;17.00;60.80;;;;;;4948953;29;20028;-73
2022/01/05 13:15:09;;;;;;;7.57;2.50;;;17.00;60.60;;;;;;4948703;29;20731;-73
2022/01/05 13:17:38;;;;;;;5.90;1.80;;;16.90;60.60;;;;;;4947576;29;20090;-73
2022/01/05 13:20:08;;;;;;;8.13;2.25;;;16.90;60.80;;;;;;4948803;29;20035;-73
2022/01/05 13:22:41;;;;;;;9.15;2.17;;;16.90;60.90;;;;;;4949229;28;20027;-73
2022/01/05 13:25:10;;;;;;;8.60;2.45;;;16.90;60.80;;;;;;4952262;29;20039;-73
2022/01/05 13:27:48;;;;;;;7.05;1.95;;;16.90;60.90;;;;;;4952197;29;20079;-73
2022/01/05 13:30:23;;;;;;;8.52;2.05;;;16.90;60.90;;;;;;4952598;29;20062;-73
2022/01/05 13:32:51;;;;;;;7.72;2.00;;;16.90;60.90;;;;;;4952333;29;20023;-73
2022/01/05 13:35:19;;;;;;;7.80;2.20;;;16.80;60.90;;;;;;4951962;29;20035;-74
2022/01/05 13:37:48;;;;;;;8.45;2.08;;;16.90;61.00;;;;;;4951915;29;20039;-73
2022/01/05 13:40:35;;;;;;;7.47;2.22;;;16.90;60.90;;;;;;4953075;29;20030;-74
2022/01/05 13:43:08;;;;;;;7.32;1.85;;;16.90;60.80;;;;;;4951904;29;20023;-73
2022/01/05 13:45:38;;;;;;;6.68;1.83;;;16.80;60.80;;;;;;4951586;29;20059;-74
2022/01/05 13:48:10;;;;;;;7.68;1.90;;;16.80;60.80;;;;;;4951739;29;20413;-73
2022/01/05 13:50:40;;;;;;;6.35;1.90;;;16.90;60.80;;;;;;4952038;29;20110;-73
2022/01/05 13:53:07;;;;;;;7.90;1.95;;;16.90;60.80;;;;;;4952242;29;20023;-74
2022/01/05 13:55:53;;;;;;;6.53;1.80;;;16.90;60.80;;;;;;4952081;29;20047;-73
2022/01/05 13:58:28;;;;;;;8.48;2.17;;;16.90;60.70;;;;;;4951997;29;20042;-73
2022/01/05 14:01:05;;;;;;;5.05;1.70;;;16.80;60.60;;;;;;4952192;29;20035;-72
2022/01/05 14:03:36;;;;;;;5.13;1.98;;;16.90;60.60;;;;;;4952270;29;20479;-74
2022/01/05 14:06:04;;;;;;;6.50;1.90;;;16.90;60.70;;;;;;4952446;29;20051;-73
2022/01/05 14:08:34;;;;;;;7.85;2.05;;;16.90;60.60;;;;;;4952708;29;20035;-74
2022/01/05 14:11:04;;;;;;;5.28;1.83;;;16.90;60.60;;;;;;4953537;29;20030;-73
2022/01/05 14:13:39;;;;;;;5.10;1.70;;;16.90;60.40;;;;;;4952850;29;20152;-73
2022/01/05 14:16:07;;;;;;;6.78;1.70;;;16.90;60.50;;;;;;4945283;29;20034;-72
2022/01/05 14:18:43;;;;;;;5.40;1.63;;;16.90;60.50;;;;;;4952082;29;20020;-74
2022/01/05 14:21:08;;;;;;;6.50;1.90;;;16.90;60.30;;;;;;4951970;29;20039;-73
2022/01/05 14:23:46;;;;;;;4.78;1.60;;;16.90;60.30;;;;;;4951868;29;20037;-73
2022/01/05 14:26:13;;;;;;;5.18;1.70;;;17.00;60.30;;;;;;4952308;29;20487;-72
2022/01/05 14:28:41;;;;;;;7.07;1.80;;;16.90;60.30;;;;;;4951230;29;20027;-74
2022/01/05 14:31:12;;;;;;;4.93;1.95;;;17.00;60.30;;;;;;4951418;29;20027;-73
2022/01/05 14:33:41;;;;;;;6.20;1.55;;;16.90;60.10;;;;;;4951440;29;20034;-72
2022/01/05 14:36:23;;;;;;;7.82;2.22;;;17.00;60.30;;;;;;4951075;28;20549;-73
2022/01/05 14:38:56;;;;;;;5.65;1.65;;;17.00;60.20;;;;;;4951621;29;20031;-72
2022/01/05 14:41:36;;;;;;;11.45;2.30;;;17.00;60.20;;;;;;4951612;29;20031;-73